createdAt,value
2023-05-19T00:03:13.637Z,7.59
2023-05-19T00:08:20.164Z,7.39
2023-05-19T00:13:24.353Z,7.03
2023-05-19T00:18:29.905Z,7.04
2023-05-19T00:23:34.751Z,7.07
2023-05-19T00:28:38.289Z,6.77
2023-05-19T00:33:41.891Z,6.75
2023-05-19T00:38:46.708Z,6.89
2023-05-19T00:43:50.846Z,6.77
2023-05-19T00:48:54.080Z,6.65
2023-05-19T00:53:59.322Z,6.54
2023-05-19T00:59:02.967Z,6.43
2023-05-19T01:04:09.969Z,6.25
2023-05-19T01:09:14.919Z,6.04
2023-05-19T01:14:18.471Z,5.97
2023-05-19T01:19:51.415Z,5.99
2023-05-19T01:25:23.861Z,6.02
2023-05-19T01:30:31.240Z,5.89
2023-05-19T01:35:36.818Z,5.68
2023-05-19T01:40:41.902Z,5.54
2023-05-19T01:45:47.150Z,5.50
2023-05-19T01:50:50.800Z,5.24
2023-05-19T01:55:56.107Z,5.28
2023-05-19T02:01:06.883Z,5.28
2023-05-19T02:06:19.283Z,5.21
2023-05-19T02:11:27.322Z,5.03
2023-05-19T02:16:32.062Z,4.93
2023-05-19T02:21:35.651Z,4.85
2023-05-19T02:26:39.081Z,4.97
2023-05-19T02:31:43.957Z,4.80
2023-05-19T02:36:49.858Z,4.84
2023-05-19T02:41:53.291Z,4.59
2023-05-19T02:46:59.297Z,4.77
2023-05-19T02:52:02.854Z,4.81
2023-05-19T02:57:06.896Z,4.55
2023-05-19T03:02:11.970Z,4.40
2023-05-19T03:07:15.685Z,4.30
2023-05-19T03:12:19.076Z,4.32
2023-05-19T03:17:23.905Z,4.32
2023-05-19T03:22:27.358Z,4.33
2023-05-19T03:27:30.950Z,4.36
2023-05-19T03:32:38.051Z,4.18
2023-05-19T03:37:42.403Z,4.14
2023-05-19T03:42:45.866Z,4.24
2023-05-19T03:47:51.066Z,4.28
2023-05-19T03:53:23.506Z,4.21
2023-05-19T03:58:27.110Z,4.18
2023-05-19T04:03:31.926Z,4.09
2023-05-19T04:08:35.340Z,4.14
2023-05-19T04:13:39.149Z,4.19
2023-05-19T04:18:45.643Z,4.34
2023-05-19T04:23:49.057Z,4.40
2023-05-19T04:28:52.805Z,4.64
2023-05-19T04:33:57.637Z,4.73
2023-05-19T04:39:02.690Z,5.02
2023-05-19T04:44:07.609Z,5.22
2023-05-19T04:49:14.636Z,5.35
2023-05-19T04:54:18.669Z,5.75
2023-05-19T04:59:23.699Z,5.98
2023-05-19T05:04:28.925Z,6.10
2023-05-19T05:09:32.410Z,6.63
2023-05-19T05:14:37.852Z,6.77
2023-05-19T05:19:43.374Z,7.27
2023-05-19T05:24:47.336Z,7.53
2023-05-19T05:29:51.646Z,8.02
2023-05-19T05:34:58.247Z,8.48
2023-05-19T05:40:02.063Z,9.05
2023-05-19T05:45:08.736Z,9.66
2023-05-19T05:50:15.388Z,10.79
2023-05-19T05:55:19.875Z,11.11
2023-05-19T06:00:25.147Z,11.80
2023-05-19T06:05:31.127Z,12.07
2023-05-19T06:10:35.908Z,13.19
2023-05-19T06:15:43.168Z,14.91
2023-05-19T06:20:55.063Z,15.81
2023-05-19T06:25:58.862Z,15.58
2023-05-19T06:31:02.431Z,16.72
2023-05-19T06:36:28.160Z,16.99
2023-05-19T06:41:34.616Z,16.32
2023-05-19T06:46:38.170Z,15.38
2023-05-19T06:51:43.360Z,14.58
2023-05-19T06:56:46.648Z,14.85
2023-05-19T07:01:51.633Z,14.56
2023-05-19T07:06:56.622Z,16.12
2023-05-19T07:12:01.550Z,15.71
2023-05-19T07:17:06.571Z,14.73
2023-05-19T07:22:13.870Z,15.00
2023-05-19T07:27:17.401Z,14.68
2023-05-19T07:32:21.001Z,16.00
2023-05-19T07:37:26.418Z,15.29
2023-05-19T07:42:29.718Z,15.35
2023-05-19T07:47:33.140Z,15.62
2023-05-19T07:52:38.005Z,15.99
2023-05-19T07:57:41.602Z,15.77
2023-05-19T08:02:45.095Z,16.52
2023-05-19T08:07:50.153Z,15.94
2023-05-19T08:12:53.447Z,16.37
2023-05-19T08:17:56.739Z,16.02
2023-05-19T08:23:01.620Z,16.28
2023-05-19T08:28:05.243Z,16.03
2023-05-19T08:33:08.673Z,15.25
2023-05-19T08:38:13.465Z,16.38
2023-05-19T08:43:16.922Z,16.14
2023-05-19T08:48:21.175Z,16.08
2023-05-19T08:58:53.240Z,15.85
2023-05-19T09:03:57.602Z,15.97
2023-05-19T09:09:03.432Z,15.93
2023-05-19T09:14:07.101Z,15.64
2023-05-19T09:19:16.187Z,16.82
2023-05-19T09:24:21.777Z,15.88
2023-05-19T09:29:25.497Z,16.24
2023-05-19T09:34:28.845Z,17.78
2023-05-19T09:39:33.653Z,18.07
2023-05-19T09:44:37.432Z,17.24
2023-05-19T09:49:48.377Z,17.00
2023-05-19T09:54:53.902Z,15.91
2023-05-19T09:59:58.431Z,16.20
2023-05-19T10:05:02.710Z,16.64
2023-05-19T10:10:11.206Z,17.19
2023-05-19T10:15:16.416Z,17.85
2023-05-19T10:20:20.092Z,17.66
2023-05-19T10:25:24.867Z,18.00
2023-05-19T10:30:38.688Z,17.52
2023-05-19T10:35:53.165Z,16.74
2023-05-19T10:41:04.373Z,15.82
2023-05-19T10:46:07.728Z,17.17
2023-05-19T10:51:12.450Z,17.91
2023-05-19T10:56:33.154Z,18.78
2023-05-19T11:01:39.702Z,17.38
2023-05-19T11:06:52.515Z,17.95
2023-05-19T11:11:57.443Z,17.67
2023-05-19T11:17:01.595Z,17.39
2023-05-19T11:22:12.460Z,17.78
2023-05-19T11:27:26.436Z,17.55
2023-05-19T11:32:30.872Z,17.54
2023-05-19T11:37:34.740Z,18.22
2023-05-19T11:42:39.672Z,18.20
2023-05-19T11:48:00.872Z,17.78
2023-05-19T11:53:05.676Z,17.94
2023-05-19T11:58:11.112Z,17.85
2023-05-19T12:03:14.628Z,17.56
2023-05-19T12:08:18.611Z,17.45
2023-05-19T12:13:23.796Z,17.59
2023-05-19T12:18:30.767Z,17.93
2023-05-19T12:23:34.847Z,17.97
2023-05-19T12:28:40.090Z,17.95
2023-05-19T12:33:43.524Z,17.93
2023-05-19T12:38:47.845Z,17.75
2023-05-19T12:43:52.963Z,18.21
2023-05-19T12:49:00.829Z,18.23
2023-05-19T12:54:04.270Z,18.30
2023-05-19T12:59:09.144Z,18.84
2023-05-19T13:04:12.794Z,18.30
2023-05-19T13:09:17.446Z,17.93
2023-05-19T13:14:22.316Z,18.26
2023-05-19T13:19:26.211Z,18.56
2023-05-19T13:24:29.715Z,18.52
2023-05-19T13:29:34.421Z,18.65
2023-05-19T13:34:37.957Z,18.41
2023-05-19T13:39:41.652Z,18.41
2023-05-19T13:44:47.053Z,17.86
2023-05-19T13:49:50.608Z,18.50
2023-05-19T13:54:54.690Z,19.39
2023-05-19T14:00:03.132Z,18.84
2023-05-19T14:05:15.265Z,18.96
2023-05-19T14:10:19.791Z,19.04
2023-05-19T14:15:24.401Z,19.43
2023-05-19T14:20:29.232Z,18.35
2023-05-19T14:25:33.304Z,18.34
2023-05-19T14:30:38.215Z,18.61
2023-05-19T14:35:41.976Z,17.93
2023-05-19T14:40:45.671Z,18.52
2023-05-19T14:45:50.746Z,18.19
2023-05-19T14:50:55.403Z,18.86
2023-05-19T14:55:59.078Z,18.88
2023-05-19T15:01:04.030Z,18.28
2023-05-19T15:06:10.846Z,18.72
2023-05-19T15:11:14.346Z,19.16
2023-05-19T15:16:19.049Z,19.34
2023-05-19T15:21:23.098Z,18.56
2023-05-19T15:26:27.649Z,17.80
2023-05-19T15:31:36.697Z,18.15
2023-05-19T15:36:41.822Z,17.85
2023-05-19T15:41:45.666Z,17.57
2023-05-19T15:46:51.291Z,17.45
2023-05-19T15:51:54.940Z,17.63
2023-05-19T15:56:58.762Z,17.36
2023-05-19T16:02:04.056Z,17.34
2023-05-19T16:07:07.565Z,17.46
2023-05-19T16:12:11.185Z,17.53
2023-05-19T16:17:16.132Z,17.11
2023-05-19T16:22:20.325Z,17.01
2023-05-19T16:27:24.715Z,17.22
2023-05-19T16:32:29.523Z,17.11
2023-05-19T16:37:32.921Z,17.33
2023-05-19T16:42:36.620Z,17.38
2023-05-19T16:47:41.855Z,17.20
2023-05-19T16:52:45.361Z,17.00
2023-05-19T16:57:48.975Z,16.70
2023-05-19T17:02:53.891Z,16.67
2023-05-19T17:07:57.187Z,16.59
2023-05-19T17:13:00.567Z,16.48
2023-05-19T17:18:06.021Z,16.35
2023-05-19T17:23:09.536Z,16.35
2023-05-19T17:28:12.712Z,16.21
2023-05-19T17:33:17.605Z,16.09
2023-05-19T17:38:20.817Z,16.06
2023-05-19T17:43:24.052Z,15.88
2023-05-19T17:48:28.915Z,15.93
2023-05-19T17:53:33.484Z,16.00
2023-05-19T17:58:37.821Z,15.76
2023-05-19T18:03:49.529Z,15.79
2023-05-19T18:08:54.805Z,15.62
2023-05-19T18:13:58.944Z,15.67
2023-05-19T18:19:04.594Z,15.67
2023-05-19T18:24:08.555Z,15.57
2023-05-19T18:29:12.432Z,15.62
2023-05-19T18:34:17.164Z,15.28
2023-05-19T18:39:20.576Z,15.05
2023-05-19T18:44:24.401Z,15.00
2023-05-19T18:49:29.459Z,15.00
2023-05-19T18:54:32.832Z,14.82
2023-05-19T18:59:36.414Z,14.79
2023-05-19T19:04:41.020Z,14.70
2023-05-19T19:09:44.802Z,14.77
2023-05-19T19:14:48.104Z,14.82
2023-05-19T19:19:53.001Z,14.59
2023-05-19T19:24:56.441Z,14.75
2023-05-19T19:29:59.801Z,14.65
2023-05-19T19:35:04.824Z,14.57
2023-05-19T19:40:09.206Z,14.57
2023-05-19T19:45:15.532Z,14.43
2023-05-19T19:50:20.686Z,14.32
2023-05-19T19:55:24.048Z,14.39
2023-05-19T20:00:27.184Z,14.44
2023-05-19T20:05:31.874Z,14.17
2023-05-19T20:10:35.494Z,14.04
2023-05-19T20:15:38.922Z,14.11
2023-05-19T20:20:44.405Z,14.09
2023-05-19T20:26:02.977Z,13.87
2023-05-19T20:31:12.920Z,14.08
2023-05-19T20:36:17.682Z,13.86
2023-05-19T20:41:21.265Z,13.75
2023-05-19T20:46:24.762Z,13.94
2023-05-19T20:51:29.492Z,13.90
2023-05-19T20:56:32.988Z,13.77
2023-05-19T21:01:37.264Z,13.74
2023-05-19T21:06:43.356Z,13.54
2023-05-19T21:11:47.907Z,13.33
2023-05-19T21:16:53.938Z,13.39
2023-05-19T21:21:58.856Z,13.35
2023-05-19T21:27:02.168Z,13.29
2023-05-19T21:32:06.675Z,13.18
2023-05-19T21:37:11.433Z,13.00
2023-05-19T21:42:15.097Z,12.97
2023-05-19T21:47:18.439Z,12.81
2023-05-19T21:52:23.276Z,12.77
2023-05-19T21:57:26.967Z,12.56
2023-05-19T22:02:30.434Z,12.45
2023-05-19T22:07:35.388Z,12.18
2023-05-19T22:12:38.762Z,12.11
2023-05-19T22:17:42.279Z,12.20
2023-05-19T22:22:47.040Z,12.21
2023-05-19T22:27:50.480Z,12.19
2023-05-19T22:32:53.881Z,12.12
2023-05-19T22:37:58.517Z,12.10
2023-05-19T22:43:01.815Z,12.10
2023-05-19T22:48:05.519Z,12.18
2023-05-19T22:53:10.420Z,12.31
2023-05-19T22:58:13.810Z,12.49
2023-05-19T23:03:18.261Z,12.38
2023-05-19T23:08:23.068Z,12.02
2023-05-19T23:13:26.341Z,12.28
2023-05-19T23:18:29.521Z,12.46
2023-05-19T23:23:35.953Z,12.20
2023-05-19T23:28:39.316Z,12.07
2023-05-19T23:33:42.764Z,12.27
2023-05-19T23:38:47.625Z,12.05
2023-05-19T23:43:50.836Z,11.82
2023-05-19T23:48:54.128Z,12.19
2023-05-19T23:53:59.038Z,12.02
2023-05-19T23:59:02.589Z,11.97
